Time;durP1;ratioP1;P1;durP2;ratioP2;P2;SDS_P1;SDS_P2;PMS_P1;PMS_P2;Temp;Humidity;BMP_temperature;BMP_pressure;BME280_temperature;BME280_humidity;BME280_pressure;Samples;Min_cycle;Max_cycle;Signal;HPM_P1;HPM_P2
2022/12/26 00:00:19;;;;;;;25.00;17.00;;;23.50;43.00;;;;;;6055733;28;84207;-68
2022/12/26 00:03:20;;;;;;;25.10;17.15;;;23.40;42.90;;;;;;6058182;28;83962;-70
2022/12/26 00:06:20;;;;;;;25.05;17.17;;;23.40;43.00;;;;;;6056334;28;84071;-68
2022/12/26 00:09:21;;;;;;;26.63;17.88;;;23.40;43.60;;;;;;6059520;28;83330;-68
2022/12/26 00:12:21;;;;;;;26.00;17.02;;;23.40;43.00;;;;;;6056571;28;83113;-69
2022/12/26 00:15:22;;;;;;;26.88;17.48;;;23.40;43.00;;;;;;6057243;28;84057;-72
2022/12/26 00:18:22;;;;;;;24.92;17.17;;;23.40;43.00;;;;;;6065934;28;90368;-71
2022/12/26 00:21:25;;;;;;;24.85;17.83;;;23.40;43.10;;;;;;6051788;28;83466;-67
2022/12/26 00:24:26;;;;;;;25.55;17.48;;;23.40;43.00;;;;;;6070842;28;83696;-67
2022/12/26 00:27:26;;;;;;;23.67;17.60;;;23.40;43.00;;;;;;6067588;28;85711;-65
2022/12/26 00:30:27;;;;;;;26.02;16.92;;;23.30;42.90;;;;;;6053027;28;84070;-66
2022/12/26 00:33:28;;;;;;;25.40;17.00;;;23.40;43.00;;;;;;6047036;28;87912;-69
2022/12/26 00:36:28;;;;;;;24.05;16.65;;;23.40;43.10;;;;;;6050427;28;83556;-72
2022/12/26 00:39:29;;;;;;;23.80;17.15;;;23.40;43.20;;;;;;6054024;28;83353;-72
2022/12/26 00:42:29;;;;;;;25.73;16.75;;;23.40;43.20;;;;;;6052199;28;83361;-70
2022/12/26 00:45:30;;;;;;;23.13;15.93;;;23.40;43.40;;;;;;6066674;28;85394;-71
2022/12/26 00:48:30;;;;;;;22.95;16.00;;;23.50;43.50;;;;;;6063166;28;83310;-71
2022/12/26 00:51:31;;;;;;;23.15;15.75;;;23.40;43.30;;;;;;6058611;28;82986;-71
2022/12/26 00:54:31;;;;;;;25.50;16.05;;;23.40;43.30;;;;;;6065847;28;84719;-70
2022/12/26 00:57:32;;;;;;;23.60;16.60;;;23.40;43.40;;;;;;6054131;28;84647;-69
2022/12/26 01:00:32;;;;;;;21.55;15.18;;;23.40;43.30;;;;;;6063385;28;84738;-70
2022/12/26 01:03:33;;;;;;;22.48;15.48;;;23.40;43.30;;;;;;6054551;28;84173;-69
2022/12/26 01:06:33;;;;;;;22.13;16.00;;;23.40;43.40;;;;;;6073965;28;85384;-70
2022/12/26 01:09:35;;;;;;;22.30;16.25;;;23.40;43.30;;;;;;6068115;28;83496;-70
2022/12/26 01:12:35;;;;;;;24.48;16.08;;;23.40;43.30;;;;;;6065241;28;83840;-70
2022/12/26 01:15:36;;;;;;;21.38;15.50;;;23.40;43.50;;;;;;6053147;28;83212;-64
2022/12/26 01:18:36;;;;;;;20.88;14.93;;;23.40;43.50;;;;;;6062226;28;83017;-72
2022/12/26 01:21:37;;;;;;;22.42;15.88;;;23.40;43.50;;;;;;6077127;28;82831;-72
2022/12/26 01:24:38;;;;;;;22.60;15.43;;;23.40;43.40;;;;;;6059557;28;85017;-74
2022/12/26 01:27:38;;;;;;;21.08;14.82;;;23.40;43.50;;;;;;6060725;28;83309;-72
2022/12/26 01:30:39;;;;;;;22.27;14.48;;;23.40;44.10;;;;;;6073369;28;83290;-69
2022/12/26 01:33:39;;;;;;;23.42;16.35;;;23.40;43.90;;;;;;6067405;28;84725;-71
2022/12/26 01:36:40;;;;;;;23.35;15.48;;;23.40;43.30;;;;;;6075002;28;83462;-69
2022/12/26 01:39:40;;;;;;;21.48;15.43;;;23.40;43.30;;;;;;6078093;28;83389;-70
2022/12/26 01:42:41;;;;;;;18.48;14.10;;;23.30;43.20;;;;;;6070613;28;84731;-68
2022/12/26 01:45:42;;;;;;;21.55;15.93;;;23.40;43.30;;;;;;6065742;28;84530;-70
2022/12/26 01:48:42;;;;;;;20.73;14.40;;;23.30;43.40;;;;;;6065352;28;83357;-73
2022/12/26 01:51:43;;;;;;;23.20;15.65;;;23.40;43.60;;;;;;6068063;28;84317;-71
2022/12/26 01:54:43;;;;;;;22.30;15.63;;;23.30;43.40;;;;;;6066876;28;83667;-60
2022/12/26 01:57:44;;;;;;;24.77;15.55;;;23.30;43.30;;;;;;6066394;28;83942;-60
2022/12/26 02:00:44;;;;;;;20.25;15.10;;;23.30;43.30;;;;;;6064925;28;85075;-59
2022/12/26 02:07:04;;;;;;;20.48;15.07;;;23.30;43.40;;;;;;6066443;28;83157;-60
2022/12/26 02:10:05;;;;;;;21.08;14.95;;;23.30;43.40;;;;;;6060887;28;85355;-60
2022/12/26 02:13:05;;;;;;;20.63;14.57;;;23.30;43.40;;;;;;6075939;28;83432;-69
2022/12/26 02:16:06;;;;;;;22.45;15.25;;;23.30;43.40;;;;;;6069469;28;86020;-69
2022/12/26 02:19:06;;;;;;;22.65;15.45;;;23.30;43.50;;;;;;6055770;28;84475;-69
2022/12/26 02:22:07;;;;;;;20.80;14.80;;;23.30;43.50;;;;;;6052923;28;84578;-70
2022/12/26 02:25:07;;;;;;;23.08;14.85;;;23.30;43.40;;;;;;6063603;28;84650;-71
2022/12/26 02:28:08;;;;;;;20.02;14.52;;;23.30;43.40;;;;;;6050521;28;83731;-68
2022/12/26 02:31:08;;;;;;;22.77;14.65;;;23.30;43.40;;;;;;6055290;28;83570;-68
2022/12/26 02:34:09;;;;;;;24.40;15.65;;;23.30;43.50;;;;;;6051050;28;82886;-68
2022/12/26 02:37:10;;;;;;;17.75;13.63;;;23.30;43.40;;;;;;6052648;28;83818;-68
2022/12/26 02:40:11;;;;;;;22.60;14.93;;;23.30;43.50;;;;;;6053282;28;83786;-68
2022/12/26 02:43:11;;;;;;;20.10;14.10;;;23.30;43.50;;;;;;6065951;28;84003;-67
2022/12/26 03:13:09;;;;;;;20.55;13.75;;;23.30;43.50;;;;;;6051492;28;84664;-69
2022/12/26 03:13:10;;;;;;;19.27;13.30;;;23.30;43.60;;;;;;6078623;28;83786;-60
2022/12/26 03:19:35;;;;;;;23.00;13.90;;;23.30;43.60;;;;;;6074834;28;86512;-61
2022/12/26 03:22:35;;;;;;;18.65;12.80;;;23.30;43.60;;;;;;6100918;28;83072;-61
2022/12/26 03:30:47;;;;;;;17.50;12.45;;;23.30;43.50;;;;;;6102719;28;88463;-60
2022/12/26 03:32:15;;;;;;;18.48;13.13;;;23.30;43.50;;;;;;6079697;28;82682;-60
2022/12/26 03:35:16;;;;;;;19.30;12.73;;;23.30;43.50;;;;;;6090629;28;83657;-59
2022/12/26 03:38:16;;;;;;;21.42;12.50;;;23.30;43.50;;;;;;6104599;28;83299;-59
2022/12/26 04:44:31;;;;;;;19.80;11.95;;;23.60;42.50;;;;;;6103215;28;83440;-71
2022/12/26 04:47:32;;;;;;;16.33;11.73;;;23.60;42.50;;;;;;6101054;28;84506;-68
2022/12/26 04:50:32;;;;;;;16.27;11.38;;;23.60;42.50;;;;;;6115413;28;83216;-69
2022/12/26 04:53:33;;;;;;;16.55;11.27;;;23.70;42.40;;;;;;6077305;28;83542;-74
2022/12/26 04:56:33;;;;;;;16.60;11.02;;;23.70;42.30;;;;;;6079600;28;83961;-71
2022/12/26 04:59:34;;;;;;;15.35;10.70;;;23.70;42.30;;;;;;6076811;28;84350;-71
2022/12/26 05:12:49;;;;;;;17.30;10.83;;;23.80;42.10;;;;;;6075480;28;83573;-71
2022/12/26 05:29:07;;;;;;;16.30;10.32;;;23.90;42.00;;;;;;6075979;28;88342;-59
2022/12/26 05:32:07;;;;;;;14.45;9.57;;;23.90;42.10;;;;;;6076913;28;84493;-60
2022/12/26 05:35:08;;;;;;;15.30;9.77;;;23.90;42.00;;;;;;6080416;28;82948;-69
2022/12/26 05:38:08;;;;;;;17.83;10.52;;;24.00;42.10;;;;;;6081128;28;81259;-71
2022/12/26 05:41:09;;;;;;;16.40;10.45;;;23.90;41.90;;;;;;6078988;28;84144;-72
2022/12/26 05:44:09;;;;;;;16.08;11.70;;;23.90;42.00;;;;;;6068348;28;83726;-71
2022/12/26 05:47:10;;;;;;;13.93;10.18;;;24.00;42.00;;;;;;6074068;28;83009;-73
2022/12/26 05:50:11;;;;;;;15.60;10.75;;;24.00;42.20;;;;;;6063941;28;84309;-70
2022/12/26 05:53:12;;;;;;;16.42;11.05;;;23.90;43.10;;;;;;6077298;28;83212;-70
2022/12/26 05:56:12;;;;;;;14.80;10.45;;;23.90;42.40;;;;;;6076633;28;83061;-67
2022/12/26 05:59:13;;;;;;;14.35;10.48;;;23.90;42.70;;;;;;6079604;28;90946;-68
2022/12/26 06:02:13;;;;;;;18.67;10.80;;;24.00;43.00;;;;;;6100666;28;83807;-66
2022/12/26 06:05:14;;;;;;;16.55;9.85;;;24.00;43.00;;;;;;6097267;28;85250;-68
2022/12/26 06:08:14;;;;;;;22.25;10.55;;;23.90;43.00;;;;;;6068364;28;82418;-69
2022/12/26 06:11:15;;;;;;;45.35;11.48;;;23.90;43.10;;;;;;6081265;28;83307;-74
2022/12/26 06:14:15;;;;;;;15.13;9.85;;;23.90;43.40;;;;;;6074298;28;86101;-70
2022/12/26 06:17:16;;;;;;;19.95;9.35;;;23.80;43.30;;;;;;6090873;28;85092;-70
2022/12/26 06:20:16;;;;;;;18.98;10.77;;;23.80;43.50;;;;;;6092224;28;82174;-68
2022/12/26 06:23:17;;;;;;;17.02;10.60;;;23.80;43.20;;;;;;6093983;28;83101;-69
2022/12/26 06:26:17;;;;;;;16.65;10.30;;;23.80;43.30;;;;;;6092679;28;84943;-70
2022/12/26 06:29:18;;;;;;;17.95;10.60;;;23.70;43.20;;;;;;6085282;28;83650;-71
2022/12/26 06:32:18;;;;;;;14.70;10.43;;;23.70;43.30;;;;;;6096802;28;84078;-67
2022/12/26 06:35:19;;;;;;;14.57;10.13;;;23.70;43.50;;;;;;6094421;28;84311;-70
2022/12/26 06:38:19;;;;;;;18.02;11.77;;;23.70;44.10;;;;;;6089100;28;89403;-66
2022/12/26 06:41:20;;;;;;;15.18;9.60;;;23.70;44.10;;;;;;6092109;28;83443;-64
2022/12/26 06:44:20;;;;;;;13.85;9.82;;;23.70;44.10;;;;;;6095222;28;82114;-68
2022/12/26 06:47:21;;;;;;;15.25;9.88;;;23.70;44.10;;;;;;6095336;28;82635;-73
2022/12/26 06:50:22;;;;;;;16.88;10.52;;;23.70;44.10;;;;;;6084700;28;81916;-71
2022/12/26 06:53:22;;;;;;;15.68;10.07;;;23.70;44.10;;;;;;6066185;28;83748;-72
2022/12/26 06:56:23;;;;;;;15.98;10.38;;;23.70;44.40;;;;;;6056020;28;89124;-69
2022/12/26 06:59:23;;;;;;;17.58;11.02;;;23.70;44.40;;;;;;6069126;28;88818;-70
2022/12/26 07:02:24;;;;;;;15.13;10.82;;;23.70;44.70;;;;;;6055345;28;83273;-73
2022/12/26 07:05:24;;;;;;;22.65;11.20;;;23.80;44.80;;;;;;6059021;28;86970;-73
2022/12/26 07:08:25;;;;;;;18.10;10.77;;;23.80;45.10;;;;;;6062592;28;83784;-73
2022/12/26 07:11:25;;;;;;;14.32;9.70;;;23.80;45.00;;;;;;6075611;28;84233;-71
2022/12/26 07:14:26;;;;;;;21.35;10.90;;;23.80;45.40;;;;;;6067363;28;83748;-75
2022/12/26 07:17:26;;;;;;;18.73;11.55;;;23.80;45.50;;;;;;6072707;28;83291;-73
2022/12/26 07:20:27;;;;;;;17.70;10.60;;;23.90;45.40;;;;;;6064634;28;89393;-74
2022/12/26 07:23:29;;;;;;;13.98;9.68;;;23.90;45.50;;;;;;6090200;28;83535;-60
2022/12/26 07:26:30;;;;;;;26.55;11.40;;;23.90;45.40;;;;;;6096912;28;87715;-64
2022/12/26 07:29:31;;;;;;;16.73;9.95;;;24.00;45.40;;;;;;6083771;28;83072;-62
2022/12/26 07:32:31;;;;;;;21.75;10.68;;;24.00;45.20;;;;;;6101211;28;84108;-64
2022/12/26 07:35:32;;;;;;;16.20;9.98;;;24.00;44.80;;;;;;6099484;28;87381;-62
2022/12/26 07:38:32;;;;;;;14.70;9.35;;;24.00;44.90;;;;;;6097912;28;83965;-65
2022/12/26 07:44:52;;;;;;;16.15;9.30;;;24.00;44.90;;;;;;6102253;28;80265;-63
2022/12/26 07:47:53;;;;;;;19.73;9.98;;;24.10;45.00;;;;;;6082130;28;80692;-63
2022/12/26 07:50:53;;;;;;;15.27;8.30;;;24.10;44.60;;;;;;6072630;28;89883;-66
2022/12/26 07:53:54;;;;;;;15.77;9.30;;;24.10;44.50;;;;;;6097405;28;82769;-71
2022/12/26 07:56:54;;;;;;;17.60;8.63;;;24.20;44.60;;;;;;6093220;28;80823;-71
2022/12/26 07:59:55;;;;;;;17.63;7.93;;;24.20;45.00;;;;;;6097186;28;80630;-70
2022/12/26 08:02:56;;;;;;;14.93;8.73;;;24.20;45.80;;;;;;6076849;28;82704;-68
2022/12/26 08:05:56;;;;;;;13.38;7.82;;;24.10;45.80;;;;;;6095648;28;81244;-72
2022/12/26 08:08:57;;;;;;;15.43;7.68;;;24.10;45.80;;;;;;6087265;28;81471;-72
2022/12/26 08:11:57;;;;;;;14.60;8.07;;;24.10;46.20;;;;;;6101434;28;81692;-70
2022/12/26 08:14:58;;;;;;;12.70;7.88;;;24.10;46.60;;;;;;6088287;28;81264;-68
2022/12/26 08:17:58;;;;;;;15.27;8.27;;;24.10;46.50;;;;;;6091571;28;81048;-66
2022/12/26 08:20:59;;;;;;;14.65;8.43;;;24.10;46.50;;;;;;6089640;28;81273;-68
2022/12/26 08:23:59;;;;;;;13.35;8.23;;;24.10;46.60;;;;;;6095357;28;80403;-69
2022/12/26 08:27:00;;;;;;;14.55;8.27;;;24.10;46.50;;;;;;6091417;28;80375;-59
2022/12/26 08:30:00;;;;;;;13.93;8.85;;;24.10;46.50;;;;;;6074649;28;81501;-66
2022/12/26 08:33:01;;;;;;;13.00;7.75;;;24.10;46.40;;;;;;6082838;28;82620;-64
2022/12/26 08:36:02;;;;;;;13.48;8.35;;;24.10;46.00;;;;;;6084484;28;81226;-70
2022/12/26 08:39:02;;;;;;;12.63;8.00;;;24.10;46.40;;;;;;6074899;28;81497;-71
2022/12/26 08:42:03;;;;;;;18.95;8.07;;;24.10;46.50;;;;;;6065823;28;81436;-68
2022/12/26 08:45:04;;;;;;;16.85;7.95;;;24.10;46.50;;;;;;6054739;28;83358;-66
2022/12/26 08:48:05;;;;;;;16.58;8.43;;;24.10;46.30;;;;;;6064624;28;83221;-66
2022/12/26 08:51:05;;;;;;;12.75;8.68;;;24.10;46.40;;;;;;6052911;28;85718;-69
2022/12/26 08:54:06;;;;;;;16.70;9.20;;;24.10;46.60;;;;;;6052212;28;80326;-68
2022/12/26 08:57:07;;;;;;;11.93;8.07;;;24.10;46.80;;;;;;6055796;28;83883;-71
2022/12/26 09:00:07;;;;;;;14.10;8.85;;;24.10;46.90;;;;;;6050544;28;80590;-68
2022/12/26 09:03:09;;;;;;;27.17;10.32;;;24.10;46.80;;;;;;6064817;28;86399;-68
2022/12/26 09:06:10;;;;;;;12.40;8.80;;;24.10;47.00;;;;;;6049028;28;84943;-69
2022/12/26 09:09:11;;;;;;;17.20;9.00;;;24.10;46.90;;;;;;6060470;28;83597;-68
2022/12/26 09:12:12;;;;;;;18.65;9.98;;;24.10;47.00;;;;;;6057103;28;80511;-69
2022/12/26 09:15:12;;;;;;;18.50;10.23;;;24.10;46.80;;;;;;6046639;28;83202;-59
2022/12/26 09:18:13;;;;;;;15.85;10.68;;;24.10;46.70;;;;;;6051652;28;88759;-59
2022/12/26 09:21:13;;;;;;;17.63;9.68;;;24.10;46.90;;;;;;6045553;28;83452;-59
2022/12/26 09:24:14;;;;;;;18.98;10.95;;;24.00;47.00;;;;;;6052950;28;83089;-59
2022/12/26 09:27:14;;;;;;;19.05;11.15;;;24.10;46.80;;;;;;6046016;28;83856;-59
2022/12/26 09:30:15;;;;;;;18.77;11.23;;;24.10;46.90;;;;;;6044554;28;83444;-60
2022/12/26 09:33:15;;;;;;;18.88;12.07;;;24.10;46.80;;;;;;6046090;28;83854;-61
2022/12/26 09:36:16;;;;;;;14.60;10.40;;;24.10;46.40;;;;;;6036646;28;87951;-59
2022/12/26 09:39:16;;;;;;;30.25;11.55;;;24.20;46.30;;;;;;6045097;28;84101;-59
2022/12/26 09:42:17;;;;;;;15.80;10.82;;;24.30;46.30;;;;;;6051295;28;83584;-59
2022/12/26 09:45:17;;;;;;;16.27;11.07;;;24.30;46.20;;;;;;6045478;28;84859;-59
2022/12/26 09:48:18;;;;;;;15.57;10.30;;;24.30;46.20;;;;;;6049018;28;88631;-62
2022/12/26 09:51:18;;;;;;;16.05;11.38;;;24.30;46.10;;;;;;6051401;28;82910;-63
2022/12/26 09:54:19;;;;;;;16.65;11.35;;;24.30;45.90;;;;;;6061571;28;83600;-61
2022/12/26 09:57:19;;;;;;;16.20;10.77;;;24.30;45.80;;;;;;6056992;28;83532;-70
2022/12/26 10:00:20;;;;;;;17.60;11.32;;;24.30;45.20;;;;;;6064238;28;84379;-68
2022/12/26 10:03:21;;;;;;;17.98;11.80;;;24.30;45.40;;;;;;6057854;28;83972;-64
2022/12/26 10:06:21;;;;;;;19.42;11.98;;;24.30;45.30;;;;;;6062552;28;85593;-65
2022/12/26 10:09:22;;;;;;;17.23;11.73;;;24.30;45.10;;;;;;6055705;28;84372;-62
2022/12/26 10:12:23;;;;;;;17.23;10.80;;;24.30;45.30;;;;;;6062115;28;83538;-57
2022/12/26 10:15:24;;;;;;;19.55;12.00;;;24.30;45.50;;;;;;6059537;28;83265;-63
2022/12/26 10:18:24;;;;;;;19.65;11.48;;;24.30;45.70;;;;;;6073144;28;84166;-65
2022/12/26 10:21:25;;;;;;;20.77;12.00;;;24.30;45.70;;;;;;6070691;28;82887;-64
2022/12/26 10:24:25;;;;;;;19.38;10.93;;;24.30;46.10;;;;;;6064100;28;89546;-70
2022/12/26 10:27:26;;;;;;;22.85;11.18;;;24.20;46.10;;;;;;6057459;28;86323;-66
2022/12/26 10:30:26;;;;;;;18.35;11.30;;;24.20;46.30;;;;;;6064132;28;83337;-67
2022/12/26 10:33:27;;;;;;;20.88;11.38;;;24.20;46.20;;;;;;6053943;28;83170;-68
2022/12/26 10:36:27;;;;;;;17.92;11.75;;;24.10;46.10;;;;;;6058042;28;83693;-64
2022/12/26 10:39:28;;;;;;;17.52;11.30;;;24.10;46.30;;;;;;6063250;28;83394;-67
2022/12/26 10:42:28;;;;;;;15.25;9.88;;;24.10;46.50;;;;;;6051195;28;83934;-71
2022/12/26 10:45:29;;;;;;;15.88;9.40;;;24.00;46.80;;;;;;6049656;28;83478;-68
2022/12/26 10:48:29;;;;;;;11.80;7.72;;;23.80;47.40;;;;;;6056152;28;80518;-69
2022/12/26 10:51:30;;;;;;;11.65;7.47;;;23.70;48.30;;;;;;6052049;28;82808;-70
2022/12/26 10:54:31;;;;;;;12.70;6.82;;;23.60;48.80;;;;;;6051850;28;81435;-69
2022/12/26 10:57:31;;;;;;;10.27;6.78;;;23.70;49.70;;;;;;6050973;28;84698;-61
2022/12/26 11:00:32;;;;;;;9.02;6.05;;;23.90;49.80;;;;;;6051940;28;80975;-65
2022/12/26 11:03:32;;;;;;;9.50;6.00;;;24.00;50.40;;;;;;6065991;28;86267;-60
2022/12/26 11:06:33;;;;;;;12.18;5.95;;;24.00;50.90;;;;;;6072126;28;80878;-60
2022/12/26 11:09:34;;;;;;;9.85;5.82;;;23.90;52.20;;;;;;6050670;28;80766;-61
2022/12/26 11:12:34;;;;;;;7.22;5.68;;;23.80;52.50;;;;;;6053258;28;81026;-61
2022/12/26 11:15:35;;;;;;;8.70;4.78;;;23.90;52.70;;;;;;6056566;28;82137;-61
2022/12/26 11:18:35;;;;;;;8.48;6.05;;;23.90;53.00;;;;;;6052186;28;81419;-61
2022/12/26 11:21:37;;;;;;;6.70;5.32;;;23.90;52.70;;;;;;6059618;28;80933;-61
2022/12/26 11:24:37;;;;;;;8.85;5.55;;;23.90;53.50;;;;;;6058576;28;81314;-61
2022/12/26 11:27:38;;;;;;;8.88;4.95;;;24.00;53.40;;;;;;6078701;28;81859;-63
2022/12/26 11:30:39;;;;;;;10.88;5.60;;;24.10;54.00;;;;;;6088846;28;81975;-63
2022/12/26 11:33:39;;;;;;;10.57;5.78;;;24.20;54.00;;;;;;6063870;28;81163;-61
2022/12/26 11:36:40;;;;;;;15.68;7.18;;;24.30;52.50;;;;;;6059826;28;84865;-62
2022/12/26 11:39:40;;;;;;;18.45;7.32;;;24.30;51.70;;;;;;6069782;28;81895;-62
2022/12/26 11:42:41;;;;;;;13.32;7.07;;;24.40;50.60;;;;;;6059644;28;80335;-62
2022/12/26 11:45:41;;;;;;;15.27;7.22;;;24.40;48.60;;;;;;6053885;28;81277;-62
2022/12/26 11:48:42;;;;;;;17.00;7.20;;;24.30;47.60;;;;;;6074594;28;80892;-64
2022/12/26 11:51:42;;;;;;;13.18;6.70;;;24.30;47.10;;;;;;6056501;28;80636;-62
2022/12/26 11:54:43;;;;;;;18.45;7.50;;;24.10;46.90;;;;;;6070454;28;81030;-63
2022/12/26 11:57:43;;;;;;;19.08;7.57;;;24.20;48.40;;;;;;6071240;28;80621;-64
2022/12/26 12:00:44;;;;;;;16.05;7.30;;;24.30;50.10;;;;;;6078748;28;81423;-64
2022/12/26 12:03:44;;;;;;;12.13;6.30;;;24.30;50.50;;;;;;6078408;28;80726;-64
2022/12/26 12:06:48;;;;;;;12.07;6.25;;;24.30;51.70;;;;;;6085985;28;81265;-63
2022/12/26 12:09:48;;;;;;;11.25;6.28;;;24.50;51.80;;;;;;6056533;28;80659;-63
2022/12/26 12:12:49;;;;;;;9.75;5.07;;;24.60;51.40;;;;;;6080874;28;81175;-62
2022/12/26 12:15:49;;;;;;;8.90;5.43;;;24.70;52.50;;;;;;6069661;28;80974;-59
2022/12/26 12:18:50;;;;;;;7.68;4.95;;;23.50;45.10;;;;;;6058095;28;80608;-61
2022/12/26 12:21:50;;;;;;;9.60;7.07;;;22.50;45.40;;;;;;6053997;28;81390;-58
2022/12/26 12:24:51;;;;;;;8.90;5.00;;;22.00;46.00;;;;;;6063514;28;80901;-59
2022/12/26 12:27:51;;;;;;;9.55;5.47;;;21.80;46.40;;;;;;6068354;28;80912;-60
2022/12/26 12:30:52;;;;;;;6.05;4.95;;;22.40;47.40;;;;;;6074879;28;80603;-59
2022/12/26 12:33:52;;;;;;;7.47;4.28;;;23.00;48.30;;;;;;6077506;28;80656;-59
2022/12/26 12:36:53;;;;;;;7.20;3.80;;;23.50;48.60;;;;;;6078647;28;81014;-60
2022/12/26 12:39:53;;;;;;;7.20;4.32;;;23.80;49.40;;;;;;6072008;28;80781;-58
2022/12/26 12:42:54;;;;;;;5.45;3.92;;;24.00;49.90;;;;;;6078823;28;81435;-61
2022/12/26 12:45:54;;;;;;;7.68;3.63;;;24.10;50.00;;;;;;6062933;28;81174;-61
2022/12/26 12:48:55;;;;;;;7.80;4.30;;;24.30;50.50;;;;;;6058395;28;82574;-60
2022/12/26 12:51:57;;;;;;;7.97;3.88;;;24.30;51.20;;;;;;6080465;28;81429;-60
2022/12/26 12:54:58;;;;;;;5.93;3.47;;;24.40;51.20;;;;;;6078467;28;80565;-71
2022/12/26 12:57:59;;;;;;;6.38;3.58;;;24.50;51.10;;;;;;6062092;28;82999;-73
2022/12/26 13:00:59;;;;;;;5.43;3.67;;;24.60;51.00;;;;;;6061378;28;83649;-70
2022/12/26 13:04:00;;;;;;;6.25;3.40;;;24.60;51.30;;;;;;6073322;28;81444;-65
2022/12/26 13:07:00;;;;;;;4.38;3.13;;;24.60;51.10;;;;;;6057614;28;80716;-61
2022/12/26 13:10:01;;;;;;;7.75;3.00;;;24.60;51.30;;;;;;6085068;28;83572;-67
2022/12/26 13:13:01;;;;;;;10.65;3.20;;;24.60;51.50;;;;;;6077031;28;80261;-68
2022/12/26 13:16:02;;;;;;;3.97;2.90;;;24.60;51.50;;;;;;6075774;28;81399;-68
2022/12/26 13:19:02;;;;;;;8.65;3.45;;;24.60;52.00;;;;;;6066916;28;80596;-65
2022/12/26 13:22:03;;;;;;;6.47;3.22;;;24.60;51.90;;;;;;6074362;28;81588;-69
2022/12/26 13:25:03;;;;;;;10.35;3.20;;;24.50;52.00;;;;;;6073602;28;80446;-60
2022/12/26 13:28:08;;;;;;;5.22;2.67;;;24.50;52.40;;;;;;6075262;28;82315;-68
2022/12/26 13:31:08;;;;;;;6.32;3.28;;;24.40;52.10;;;;;;6078457;28;81028;-66
2022/12/26 13:34:09;;;;;;;6.90;3.92;;;24.40;52.00;;;;;;6066890;28;80580;-67
2022/12/26 13:37:10;;;;;;;6.40;4.38;;;24.40;51.20;;;;;;6078959;28;81162;-70
2022/12/26 13:40:10;;;;;;;5.90;4.05;;;24.40;51.00;;;;;;6079083;28;80462;-71
2022/12/26 13:46:30;;;;;;;10.48;4.97;;;24.30;51.10;;;;;;6087057;28;80404;-71
2022/12/26 13:49:34;;;;;;;6.72;4.85;;;24.30;51.20;;;;;;6078546;28;80747;-72
2022/12/26 13:52:35;;;;;;;7.97;5.35;;;24.30;51.30;;;;;;6090454;28;80374;-73
2022/12/26 13:55:37;;;;;;;8.77;6.15;;;24.30;51.40;;;;;;6089986;28;80530;-71
2022/12/26 13:58:38;;;;;;;8.80;6.70;;;24.30;51.30;;;;;;6092406;28;81978;-72
2022/12/26 14:01:38;;;;;;;11.57;7.68;;;24.30;50.80;;;;;;6077658;28;81287;-73
2022/12/26 14:04:39;;;;;;;10.02;6.88;;;24.30;50.90;;;;;;6078546;28;82877;-69
2022/12/26 14:07:39;;;;;;;13.13;7.22;;;24.30;51.10;;;;;;6078093;28;83416;-67
2022/12/26 14:10:42;;;;;;;11.05;7.35;;;24.30;51.10;;;;;;6067745;28;80758;-66
2022/12/26 14:13:42;;;;;;;10.88;6.88;;;24.30;51.00;;;;;;6079919;28;82381;-66
2022/12/26 14:16:43;;;;;;;9.30;6.55;;;24.20;51.70;;;;;;6066377;28;81711;-66
2022/12/26 14:19:44;;;;;;;10.82;6.40;;;24.20;51.90;;;;;;6067331;28;80554;-66
2022/12/26 14:22:44;;;;;;;7.68;5.10;;;24.30;52.20;;;;;;6066249;28;81955;-66
2022/12/26 14:25:45;;;;;;;8.68;5.75;;;24.20;52.70;;;;;;6077508;28;80499;-65
2022/12/26 14:28:45;;;;;;;8.40;4.82;;;24.20;53.10;;;;;;6064693;28;80591;-65
2022/12/26 14:31:46;;;;;;;7.20;5.05;;;24.20;53.40;;;;;;6053776;28;80216;-65
2022/12/26 14:34:46;;;;;;;7.10;4.82;;;24.20;53.50;;;;;;6056298;28;81794;-65
2022/12/26 14:37:47;;;;;;;7.25;4.43;;;24.20;53.60;;;;;;6060041;28;80736;-67
2022/12/26 14:40:47;;;;;;;6.18;4.43;;;24.20;53.70;;;;;;6055005;28;84771;-65
2022/12/26 14:43:48;;;;;;;6.13;4.15;;;24.20;53.80;;;;;;6069503;28;80543;-64
2022/12/26 14:46:48;;;;;;;5.63;3.47;;;24.20;53.90;;;;;;6055619;28;81604;-58
2022/12/26 14:49:49;;;;;;;6.57;4.15;;;24.20;54.30;;;;;;6065842;28;81595;-60
2022/12/26 14:52:49;;;;;;;4.00;2.95;;;24.20;54.10;;;;;;6076925;28;80523;-60
2022/12/26 14:55:50;;;;;;;4.90;3.38;;;24.20;55.20;;;;;;6064296;28;82264;-59
2022/12/26 14:58:50;;;;;;;5.15;3.40;;;24.20;55.10;;;;;;6074109;28;82414;-61
2022/12/26 15:01:51;;;;;;;3.05;2.60;;;24.20;55.30;;;;;;6063025;28;85939;-61
2022/12/26 15:04:51;;;;;;;4.88;2.72;;;24.10;55.40;;;;;;6065831;28;80633;-59
2022/12/26 15:07:52;;;;;;;4.20;2.92;;;24.10;55.40;;;;;;6061678;28;85592;-60
2022/12/26 15:10:52;;;;;;;4.35;3.28;;;24.10;55.40;;;;;;6071319;28;80717;-60
2022/12/26 15:13:53;;;;;;;4.15;2.95;;;24.10;55.50;;;;;;6070192;28;80603;-60
2022/12/26 15:16:53;;;;;;;3.92;2.83;;;24.10;55.70;;;;;;6077180;28;80760;-59
2022/12/26 15:19:54;;;;;;;3.35;2.67;;;24.10;55.70;;;;;;6072676;28;81160;-61
2022/12/26 15:22:54;;;;;;;3.75;2.75;;;24.10;55.50;;;;;;6071863;28;80504;-61
2022/12/26 15:25:55;;;;;;;4.13;2.85;;;24.10;55.40;;;;;;6080907;28;80948;-62
2022/12/26 15:28:55;;;;;;;3.70;2.80;;;24.10;55.10;;;;;;6079034;28;80381;-62
2022/12/26 15:31:56;;;;;;;3.17;2.35;;;24.10;54.80;;;;;;6059869;28;81019;-61
2022/12/26 15:34:57;;;;;;;8.02;3.22;;;24.10;54.50;;;;;;6076681;28;81046;-60
2022/12/26 15:37:57;;;;;;;4.35;2.17;;;24.10;54.10;;;;;;6068958;28;80595;-60
2022/12/26 15:40:58;;;;;;;9.07;3.53;;;24.10;53.80;;;;;;6081219;28;80530;-61
2022/12/26 15:43:58;;;;;;;6.13;4.00;;;24.10;53.40;;;;;;6098526;28;81144;-62
2022/12/26 15:46:59;;;;;;;7.47;4.55;;;24.10;52.40;;;;;;6077638;28;84221;-61
2022/12/26 15:49:59;;;;;;;7.88;5.13;;;24.10;51.50;;;;;;6083929;28;80910;-61
2022/12/26 15:53:00;;;;;;;8.35;5.18;;;24.00;50.80;;;;;;6079455;28;82797;-59
2022/12/26 15:56:00;;;;;;;9.07;5.97;;;24.00;50.20;;;;;;6085817;28;80433;-59
2022/12/26 15:59:01;;;;;;;11.68;5.70;;;24.00;49.70;;;;;;6081443;28;81885;-60
2022/12/26 16:02:01;;;;;;;9.23;5.40;;;24.00;49.50;;;;;;6064534;28;80888;-59
2022/12/26 16:05:02;;;;;;;7.80;5.45;;;24.00;49.30;;;;;;6093562;28;82067;-61
2022/12/26 16:08:02;;;;;;;7.47;5.25;;;24.00;49.20;;;;;;6076543;28;80759;-59
2022/12/26 16:11:03;;;;;;;9.07;4.97;;;24.00;49.30;;;;;;6062928;28;82719;-69
2022/12/26 16:14:03;;;;;;;10.45;5.55;;;24.10;50.20;;;;;;6044168;28;81643;-77
2022/12/26 16:17:04;;;;;;;6.88;4.53;;;24.10;50.90;;;;;;6065087;28;82734;-57
2022/12/26 16:20:05;;;;;;;8.60;4.50;;;24.10;52.10;;;;;;6065913;28;84710;-61
2022/12/26 16:23:05;;;;;;;5.93;4.32;;;24.10;52.20;;;;;;6066118;28;80396;-62
2022/12/26 16:26:06;;;;;;;6.50;4.22;;;24.10;52.60;;;;;;6065969;28;81935;-59
2022/12/26 16:29:06;;;;;;;5.40;4.07;;;24.10;52.50;;;;;;6065388;28;85547;-62
2022/12/26 16:32:07;;;;;;;12.30;4.60;;;24.10;52.70;;;;;;6032417;28;83516;-61
2022/12/26 16:35:07;;;;;;;11.43;4.65;;;24.20;52.70;;;;;;6047243;28;83539;-61
2022/12/26 16:38:08;;;;;;;8.00;4.75;;;24.20;52.60;;;;;;6058533;28;81674;-63
2022/12/26 16:41:08;;;;;;;5.13;3.70;;;24.10;52.10;;;;;;6066293;28;80859;-63
2022/12/26 16:44:09;;;;;;;6.20;4.40;;;24.10;52.00;;;;;;6052573;28;80611;-64
2022/12/26 16:47:09;;;;;;;9.73;4.97;;;24.10;52.00;;;;;;6061097;28;83203;-69
2022/12/26 16:50:10;;;;;;;6.55;4.65;;;24.20;51.90;;;;;;6059831;28;81227;-68
2022/12/26 16:53:10;;;;;;;7.63;4.70;;;24.20;52.00;;;;;;6061644;28;80783;-65
2022/12/26 16:56:11;;;;;;;8.23;5.28;;;24.30;52.20;;;;;;6065386;28;80404;-65
2022/12/26 16:59:11;;;;;;;8.95;4.78;;;24.30;52.30;;;;;;6044499;28;88344;-66
2022/12/26 17:02:12;;;;;;;9.57;5.13;;;24.30;52.50;;;;;;6038600;28;86478;-65
2022/12/26 17:05:12;;;;;;;6.60;4.60;;;24.20;52.20;;;;;;6050856;28;82166;-67
2022/12/26 17:08:13;;;;;;;7.28;5.35;;;24.20;51.90;;;;;;6046488;28;81242;-62
2022/12/26 17:11:13;;;;;;;7.28;4.88;;;24.20;51.80;;;;;;6046943;28;82910;-69
2022/12/26 17:14:14;;;;;;;8.52;5.35;;;24.20;51.70;;;;;;6050924;28;80522;-68
2022/12/26 17:17:14;;;;;;;8.77;4.95;;;24.20;51.50;;;;;;6061299;28;80720;-69
2022/12/26 17:20:15;;;;;;;9.10;5.53;;;24.20;51.40;;;;;;6056122;28;81735;-74
2022/12/26 17:23:15;;;;;;;9.85;5.07;;;24.20;51.50;;;;;;6058845;28;80987;-76
2022/12/26 17:26:16;;;;;;;11.50;5.60;;;24.20;51.60;;;;;;6048988;28;83784;-73
2022/12/26 17:29:16;;;;;;;9.85;4.75;;;24.20;51.60;;;;;;6038302;28;82736;-59
2022/12/26 17:32:17;;;;;;;14.63;5.00;;;24.30;51.80;;;;;;6066955;28;81289;-59